< < Back
Terminal Aerodrome Forecast


Current Version              Previous Versions:   1  2  3  4  5  6  7  8  9  

Terminal Aerodrome Forecast

035
FTUS44 KOHX 171100
TAFCSV
TAF
KCSV 171120Z 1712/1812 15007KT P6SM SCT250
     FM180000 16003KT P6SM BKN250=



Latest METAR

674
SAUS70 KWBC 171500 RRC
MTRCSV
METAR KCSV 171453Z AUTO 17006G15KT 10SM CLR 11/M04 A3040 RMK AO2 SLP293
T01111044 51016


USA.gov is the U.S. government's official web portal to all federal, state and local government web resources and services.